Time;durP1;ratioP1;P1;durP2;ratioP2;P2;SDS_P1;SDS_P2;PMS_P1;PMS_P2;Temp;Humidity;BMP_temperature;BMP_pressure;BME280_temperature;BME280_humidity;BME280_pressure;Samples;Min_cycle;Max_cycle;Signal;HPM_P1;HPM_P2
2024/04/22 00:01:01;;;;;;;1.65;1.58;;;6.70;99.90;;;;;;5400095;26;20311;-71
2024/04/22 00:03:30;;;;;;;1.70;1.70;;;6.70;99.90;;;;;;5405586;26;20263;-71
2024/04/22 00:05:57;;;;;;;1.63;1.63;;;6.70;99.90;;;;;;5427644;26;20299;-71
2024/04/22 00:08:27;;;;;;;1.70;1.60;;;6.70;99.90;;;;;;5427644;26;20247;-71
2024/04/22 00:11:00;;;;;;;1.20;1.20;;;6.70;99.90;;;;;;5424536;26;20306;-71
2024/04/22 00:13:29;;;;;;;1.77;1.67;;;6.70;99.90;;;;;;5407868;26;21038;-72
2024/04/22 00:15:58;;;;;;;1.52;1.52;;;6.60;99.90;;;;;;5402957;26;20259;-71
2024/04/22 00:18:26;;;;;;;1.20;1.20;;;6.60;99.90;;;;;;5406090;26;20685;-71
2024/04/22 00:20:53;;;;;;;1.50;1.50;;;6.60;99.90;;;;;;5400062;26;20294;-71
2024/04/22 00:23:23;;;;;;;2.00;1.90;;;6.60;99.90;;;;;;5404088;26;20593;-72
2024/04/22 00:25:49;;;;;;;1.55;1.35;;;6.60;99.90;;;;;;5399768;26;21212;-73
2024/04/22 00:28:17;;;;;;;1.58;1.58;;;6.70;99.90;;;;;;5401121;26;20686;-72
2024/04/22 00:30:46;;;;;;;1.60;1.60;;;6.60;99.90;;;;;;5399322;26;20301;-72
2024/04/22 00:33:15;;;;;;;1.55;1.55;;;6.60;99.90;;;;;;5402744;26;20314;-71
2024/04/22 00:35:43;;;;;;;1.90;1.80;;;6.60;99.90;;;;;;5425923;26;20247;-72
2024/04/22 00:38:09;;;;;;;1.60;1.60;;;6.60;99.90;;;;;;5406344;26;20246;-71
2024/04/22 00:40:38;;;;;;;1.75;1.65;;;6.60;99.90;;;;;;5406534;26;20297;-72
2024/04/22 00:43:04;;;;;;;1.73;1.63;;;6.60;99.90;;;;;;5425304;26;20297;-72
2024/04/22 00:45:35;;;;;;;1.33;1.33;;;6.60;99.90;;;;;;5427450;26;20251;-71
2024/04/22 00:48:01;;;;;;;1.42;1.42;;;6.60;99.90;;;;;;5373449;26;20252;-71
2024/04/22 00:50:34;;;;;;;1.60;1.60;;;6.60;99.90;;;;;;5428354;26;20747;-73
2024/04/22 00:53:02;;;;;;;1.67;1.67;;;6.70;99.90;;;;;;5371179;26;20339;-72
2024/04/22 00:55:31;;;;;;;1.42;1.42;;;6.70;99.90;;;;;;5403193;26;20794;-71
2024/04/22 00:58:01;;;;;;;1.90;1.80;;;6.70;99.90;;;;;;5431227;26;20302;-72
2024/04/22 01:00:30;;;;;;;1.52;1.52;;;6.70;99.90;;;;;;5371914;26;20607;-71
2024/04/22 01:02:56;;;;;;;1.30;1.30;;;6.70;99.90;;;;;;5430137;26;20259;-72
2024/04/22 01:05:25;;;;;;;1.65;1.65;;;6.70;99.90;;;;;;5399779;26;20285;-72
2024/04/22 01:07:55;;;;;;;1.73;1.70;;;6.70;99.90;;;;;;5427463;26;20359;-74
2024/04/22 01:10:26;;;;;;;1.88;1.80;;;6.70;99.90;;;;;;5405804;26;20251;-75
2024/04/22 01:12:53;;;;;;;1.52;1.42;;;6.70;99.90;;;;;;5401522;26;20733;-75
2024/04/22 01:15:21;;;;;;;1.73;1.73;;;6.60;99.90;;;;;;5424563;26;20252;-72
2024/04/22 01:17:47;;;;;;;1.55;1.55;;;6.50;99.90;;;;;;5431024;26;20302;-72
2024/04/22 01:20:17;;;;;;;1.75;1.65;;;6.50;99.90;;;;;;5403629;26;20607;-71
2024/04/22 01:22:46;;;;;;;1.50;1.50;;;6.40;99.90;;;;;;5436966;26;20251;-72
2024/04/22 01:25:18;;;;;;;1.83;1.73;;;6.40;99.90;;;;;;5423764;26;20314;-72
2024/04/22 01:27:45;;;;;;;1.30;1.30;;;6.40;99.90;;;;;;5372383;26;20248;-72
2024/04/22 01:30:15;;;;;;;1.48;1.48;;;6.40;99.90;;;;;;5406850;26;20256;-72
2024/04/22 01:32:40;;;;;;;1.63;1.63;;;6.40;99.90;;;;;;5405816;26;20290;-74
2024/04/22 01:35:09;;;;;;;1.73;1.70;;;6.40;99.90;;;;;;5430787;26;20256;-73
2024/04/22 01:37:35;;;;;;;1.67;1.58;;;6.40;99.90;;;;;;5431462;26;20252;-75
2024/04/22 01:40:08;;;;;;;1.67;1.58;;;6.30;99.90;;;;;;5405279;26;20765;-73
2024/04/22 01:42:34;;;;;;;1.58;1.58;;;6.40;99.90;;;;;;5425144;26;20236;-73
2024/04/22 01:45:04;;;;;;;1.92;1.90;;;6.40;99.90;;;;;;5418712;26;20352;-73
2024/04/22 01:47:30;;;;;;;1.88;1.77;;;6.40;99.90;;;;;;5394657;26;20656;-72
2024/04/22 01:50:00;;;;;;;1.65;1.65;;;6.40;99.90;;;;;;5427379;26;20251;-72
2024/04/22 01:52:27;;;;;;;1.50;1.50;;;6.40;99.90;;;;;;5426023;26;20364;-71
2024/04/22 01:54:56;;;;;;;1.80;1.80;;;6.40;99.90;;;;;;5402678;26;21055;-73
2024/04/22 01:57:24;;;;;;;1.67;1.65;;;6.40;99.90;;;;;;5426753;26;20609;-73
2024/04/22 01:59:53;;;;;;;2.00;1.90;;;6.30;99.90;;;;;;5396780;26;20262;-73
2024/04/22 02:02:19;;;;;;;1.85;1.75;;;6.40;99.90;;;;;;5423118;26;20374;-72
2024/04/22 02:04:48;;;;;;;1.73;1.70;;;6.40;99.90;;;;;;5391961;26;20268;-73
2024/04/22 02:07:14;;;;;;;1.70;1.70;;;6.40;99.90;;;;;;5398336;26;20293;-74
2024/04/22 02:09:43;;;;;;;1.65;1.60;;;6.50;99.90;;;;;;5424531;26;20255;-72
2024/04/22 02:12:09;;;;;;;1.70;1.70;;;6.50;99.90;;;;;;5433841;26;21062;-72
2024/04/22 02:14:40;;;;;;;1.77;1.70;;;6.50;99.90;;;;;;5423935;26;20349;-72
2024/04/22 02:17:06;;;;;;;2.00;1.80;;;6.50;99.90;;;;;;5398591;26;20263;-75
2024/04/22 02:19:35;;;;;;;1.70;1.70;;;6.50;99.90;;;;;;5419594;26;20307;-72
2024/04/22 02:22:01;;;;;;;1.83;1.80;;;6.50;99.90;;;;;;5404338;26;20273;-72
2024/04/22 02:24:30;;;;;;;1.95;1.85;;;6.50;99.90;;;;;;5417551;26;20519;-74
2024/04/22 02:26:56;;;;;;;1.80;1.77;;;6.40;99.90;;;;;;5427387;26;20258;-73
2024/04/22 02:29:24;;;;;;;2.35;1.90;;;6.40;99.90;;;;;;5370974;26;20624;-73
2024/04/22 02:31:53;;;;;;;1.60;1.60;;;6.40;99.90;;;;;;5397862;26;20320;-73
2024/04/22 02:34:22;;;;;;;1.92;1.90;;;6.40;99.90;;;;;;5407182;26;20260;-73
2024/04/22 02:36:48;;;;;;;1.92;1.83;;;6.40;99.90;;;;;;5402767;26;20293;-76
2024/04/22 02:39:17;;;;;;;1.70;1.70;;;6.40;99.90;;;;;;5423969;26;20271;-74
2024/04/22 02:41:43;;;;;;;1.75;1.75;;;6.40;99.90;;;;;;5425396;26;20256;-74
2024/04/22 02:44:12;;;;;;;1.73;1.73;;;6.50;99.90;;;;;;5397724;26;20306;-74
2024/04/22 02:46:38;;;;;;;1.70;1.70;;;6.50;99.90;;;;;;5427935;26;20255;-72
2024/04/22 02:49:09;;;;;;;1.70;1.70;;;6.50;99.90;;;;;;5429002;26;20262;-72
2024/04/22 02:51:35;;;;;;;1.60;1.60;;;6.50;99.90;;;;;;5400315;26;20240;-72
2024/04/22 02:54:05;;;;;;;1.83;1.83;;;6.40;99.90;;;;;;5343095;26;20267;-74
2024/04/22 02:56:31;;;;;;;1.52;1.52;;;6.40;99.90;;;;;;5432074;26;20258;-73
2024/04/22 02:58:59;;;;;;;2.05;1.95;;;6.30;99.90;;;;;;5404006;26;20247;-72
2024/04/22 03:01:25;;;;;;;1.63;1.63;;;6.30;99.90;;;;;;5430144;26;20260;-76
2024/04/22 03:03:54;;;;;;;1.50;1.50;;;6.20;99.90;;;;;;5431963;26;20254;-75
2024/04/22 03:06:23;;;;;;;1.95;1.85;;;6.20;99.90;;;;;;5405383;26;20298;-73
2024/04/22 03:08:53;;;;;;;1.88;1.77;;;6.10;99.90;;;;;;5429908;26;20252;-75
2024/04/22 03:11:19;;;;;;;1.65;1.65;;;6.10;99.90;;;;;;5409491;26;20251;-73
2024/04/22 03:13:48;;;;;;;1.60;1.60;;;6.10;99.90;;;;;;5435155;26;20286;-75
2024/04/22 03:16:14;;;;;;;1.85;1.75;;;6.10;99.90;;;;;;5402406;26;20293;-73
2024/04/22 03:18:43;;;;;;;1.67;1.67;;;6.00;99.90;;;;;;5436389;26;20835;-73
2024/04/22 03:21:09;;;;;;;1.40;1.40;;;6.00;99.90;;;;;;5407495;26;20294;-73
2024/04/22 03:23:40;;;;;;;1.77;1.77;;;6.00;99.90;;;;;;5406041;26;20254;-73
2024/04/22 03:26:06;;;;;;;1.35;1.35;;;6.00;99.90;;;;;;5429616;26;20253;-74
2024/04/22 03:28:36;;;;;;;1.85;1.80;;;6.00;99.90;;;;;;5414682;26;20256;-77
2024/04/22 03:31:03;;;;;;;1.88;1.88;;;6.00;99.90;;;;;;5427669;26;21058;-75
2024/04/22 03:33:32;;;;;;;1.60;1.60;;;6.00;99.90;;;;;;5431194;26;20259;-74
2024/04/22 03:36:00;;;;;;;1.63;1.63;;;5.90;99.90;;;;;;5434911;26;20285;-72
2024/04/22 03:38:30;;;;;;;1.55;1.55;;;5.90;99.90;;;;;;5406457;26;20255;-73
2024/04/22 03:41:02;;;;;;;1.55;1.55;;;5.90;99.90;;;;;;5426119;26;20725;-73
2024/04/22 03:43:29;;;;;;;1.80;1.80;;;5.90;99.90;;;;;;5408641;26;20259;-72
2024/04/22 03:51:23;;;;;;;1.58;1.58;;;5.80;99.90;;;;;;5371685;26;20294;-71
2024/04/22 03:53:51;;;;;;;1.20;1.20;;;5.90;99.90;;;;;;5389511;26;20354;-71
2024/04/22 03:56:23;;;;;;;1.88;1.80;;;5.90;99.90;;;;;;5408514;26;20297;-73
2024/04/22 03:58:52;;;;;;;1.60;1.60;;;5.90;99.90;;;;;;5412536;26;21295;-73
2024/04/22 04:01:18;;;;;;;1.75;1.75;;;5.90;99.90;;;;;;5401744;26;20669;-75
2024/04/22 04:03:48;;;;;;;1.60;1.60;;;5.90;99.90;;;;;;5435040;26;20259;-74
2024/04/22 04:06:14;;;;;;;1.52;1.52;;;5.90;99.90;;;;;;5412363;26;20256;-75
2024/04/22 04:08:44;;;;;;;1.73;1.73;;;5.90;99.90;;;;;;5431899;26;20302;-74
2024/04/22 04:11:12;;;;;;;1.90;1.80;;;6.00;99.90;;;;;;5432181;26;20718;-78
2024/04/22 04:13:46;;;;;;;1.63;1.63;;;5.90;99.90;;;;;;5434977;26;20299;-77
2024/04/22 04:16:13;;;;;;;1.50;1.50;;;5.90;99.90;;;;;;5432050;26;20246;-77
2024/04/22 04:18:42;;;;;;;1.90;1.80;;;5.90;99.90;;;;;;5400228;26;21172;-74
2024/04/22 04:21:08;;;;;;;1.58;1.58;;;5.80;99.90;;;;;;5405047;26;20952;-76
2024/04/22 04:23:37;;;;;;;1.75;1.75;;;5.80;99.90;;;;;;5402293;26;20255;-75
2024/04/22 04:26:03;;;;;;;1.83;1.80;;;5.80;99.90;;;;;;5403452;26;20248;-77
2024/04/22 04:28:32;;;;;;;1.90;1.90;;;5.90;99.90;;;;;;5433971;26;20247;-73
2024/04/22 04:31:01;;;;;;;1.77;1.77;;;5.90;99.90;;;;;;5429140;26;20255;-73
2024/04/22 04:33:30;;;;;;;1.67;1.67;;;5.90;99.90;;;;;;5413760;26;20351;-74
2024/04/22 04:36:00;;;;;;;1.90;1.90;;;5.90;99.90;;;;;;5376528;26;20298;-72
2024/04/22 04:38:29;;;;;;;1.52;1.52;;;5.90;99.90;;;;;;5404920;26;20306;-72
2024/04/22 04:40:55;;;;;;;1.73;1.73;;;5.90;99.90;;;;;;5440502;26;20636;-72
2024/04/22 04:43:24;;;;;;;1.80;1.70;;;6.00;99.90;;;;;;5427703;26;20961;-75
2024/04/22 04:45:50;;;;;;;2.10;2.00;;;6.00;99.90;;;;;;5376474;26;20255;-73
2024/04/22 04:48:23;;;;;;;1.80;1.80;;;6.00;99.90;;;;;;5435295;26;20258;-77
2024/04/22 04:50:49;;;;;;;1.60;1.60;;;6.00;99.90;;;;;;5405219;26;20331;-73
2024/04/22 04:53:19;;;;;;;2.08;1.98;;;6.00;99.90;;;;;;5431734;26;20259;-73
2024/04/22 04:55:45;;;;;;;2.10;2.00;;;6.00;99.90;;;;;;5423267;26;20306;-73
2024/04/22 04:58:14;;;;;;;1.70;1.70;;;6.00;99.90;;;;;;5401004;26;20770;-74
2024/04/22 05:00:41;;;;;;;2.10;2.00;;;6.00;99.90;;;;;;5434114;26;20254;-73
2024/04/22 05:03:10;;;;;;;2.10;2.00;;;6.00;99.90;;;;;;5398503;26;20287;-73
2024/04/22 05:05:38;;;;;;;2.03;1.95;;;6.00;99.90;;;;;;5425657;26;20251;-73
2024/04/22 05:08:09;;;;;;;1.90;1.80;;;6.00;99.90;;;;;;5404339;26;20334;-73
2024/04/22 05:10:35;;;;;;;2.22;2.13;;;6.00;99.90;;;;;;5430700;26;20796;-73
2024/04/22 05:13:05;;;;;;;1.83;1.83;;;5.90;99.90;;;;;;5430298;26;20251;-76
2024/04/22 05:15:30;;;;;;;1.90;1.90;;;5.90;99.90;;;;;;5428999;26;20256;-74
2024/04/22 05:17:59;;;;;;;2.00;1.90;;;5.90;99.90;;;;;;5430400;26;20655;-72
2024/04/22 05:20:29;;;;;;;2.03;1.92;;;5.90;99.90;;;;;;5375742;26;20275;-72
2024/04/22 05:23:01;;;;;;;1.90;1.90;;;5.90;99.90;;;;;;5431317;26;20252;-73
2024/04/22 05:25:27;;;;;;;1.90;1.80;;;5.90;99.90;;;;;;5401398;26;20312;-75
2024/04/22 05:27:55;;;;;;;1.75;1.75;;;5.90;99.90;;;;;;5431058;26;20244;-74
2024/04/22 05:30:22;;;;;;;2.00;1.90;;;6.00;99.90;;;;;;5428655;26;20290;-73
2024/04/22 05:32:53;;;;;;;1.90;1.90;;;6.00;99.90;;;;;;5426106;26;20681;-75
2024/04/22 05:38:09;;;;;;;1.85;1.80;;;6.00;99.90;;;;;;5433906;26;20363;-74
2024/04/22 05:40:37;;;;;;;1.88;1.77;;;6.00;99.90;;;;;;5400585;26;20350;-74
2024/04/22 05:43:07;;;;;;;1.90;1.90;;;6.00;99.90;;;;;;5432567;26;20247;-77
2024/04/22 05:45:33;;;;;;;1.60;1.60;;;6.10;99.90;;;;;;5426429;26;20920;-75
2024/04/22 05:48:01;;;;;;;1.88;1.88;;;6.10;99.90;;;;;;5402521;26;20262;-74
2024/04/22 05:50:30;;;;;;;1.73;1.73;;;6.10;99.90;;;;;;5374459;26;20310;-73
2024/04/22 05:52:59;;;;;;;1.70;1.70;;;6.20;99.90;;;;;;5397529;26;20293;-73
2024/04/22 05:55:30;;;;;;;1.67;1.67;;;6.30;99.90;;;;;;5344730;26;20351;-74
2024/04/22 05:57:56;;;;;;;1.65;1.65;;;6.30;99.90;;;;;;5395993;26;20339;-74
2024/04/22 06:00:25;;;;;;;2.05;1.95;;;6.40;99.90;;;;;;5424644;26;20643;-75
2024/04/22 06:02:51;;;;;;;2.10;2.00;;;6.40;99.90;;;;;;5400084;26;20247;-74
2024/04/22 06:05:20;;;;;;;2.20;2.10;;;6.40;99.90;;;;;;5420210;26;20251;-74
2024/04/22 06:07:46;;;;;;;2.25;2.15;;;6.40;99.90;;;;;;5379317;26;20261;-75
2024/04/22 06:10:15;;;;;;;2.10;2.00;;;6.40;99.90;;;;;;5383620;26;20311;-75
2024/04/22 06:12:44;;;;;;;2.20;2.10;;;6.40;99.90;;;;;;5384429;26;20882;-72
2024/04/22 06:15:12;;;;;;;2.00;1.90;;;6.40;99.90;;;;;;5391000;26;20252;-72
2024/04/22 06:17:38;;;;;;;1.90;1.90;;;6.50;99.90;;;;;;5387703;26;20256;-74
2024/04/22 06:20:11;;;;;;;2.22;2.13;;;6.50;99.90;;;;;;5389061;26;20893;-73
2024/04/22 06:22:38;;;;;;;3.28;3.08;;;6.50;99.90;;;;;;5382187;26;20341;-72
2024/04/22 06:25:08;;;;;;;2.70;2.50;;;6.60;99.90;;;;;;5390745;26;20264;-72
2024/04/22 06:27:34;;;;;;;2.50;2.30;;;6.60;99.90;;;;;;5355834;26;20324;-74
2024/04/22 06:30:07;;;;;;;2.30;2.20;;;6.70;99.90;;;;;;5388351;26;20260;-73
2024/04/22 06:32:35;;;;;;;2.85;2.65;;;6.80;99.90;;;;;;5388511;26;20253;-75
2024/04/22 06:35:04;;;;;;;2.30;2.20;;;6.80;99.90;;;;;;5384479;26;20252;-73
2024/04/22 06:37:30;;;;;;;2.50;2.40;;;6.90;99.90;;;;;;5387596;26;20257;-75
2024/04/22 06:39:59;;;;;;;2.33;2.22;;;6.90;99.90;;;;;;5387201;26;20826;-73
2024/04/22 06:42:25;;;;;;;2.10;2.00;;;6.90;99.90;;;;;;5387576;26;20280;-75
2024/04/22 06:44:54;;;;;;;2.53;2.40;;;6.80;99.90;;;;;;5387559;26;20302;-74
2024/04/22 06:47:23;;;;;;;2.25;2.15;;;6.70;99.90;;;;;;5388574;26;20249;-73
2024/04/22 06:49:52;;;;;;;2.33;2.22;;;6.70;99.90;;;;;;5377927;26;20298;-73
2024/04/22 06:52:18;;;;;;;2.55;2.45;;;6.80;99.90;;;;;;5383344;26;20336;-71
2024/04/22 06:54:47;;;;;;;1.83;1.73;;;6.80;99.90;;;;;;5384473;26;20257;-73
2024/04/22 06:57:13;;;;;;;2.00;1.90;;;6.80;99.90;;;;;;5386041;26;22864;-73
2024/04/22 06:59:42;;;;;;;2.30;2.20;;;6.80;99.90;;;;;;5384955;26;20260;-73
2024/04/22 07:02:08;;;;;;;2.10;2.00;;;6.80;99.90;;;;;;5368461;26;20299;-72
2024/04/22 07:04:39;;;;;;;2.08;1.98;;;6.90;99.90;;;;;;5391234;26;20261;-74
2024/04/22 07:07:06;;;;;;;2.28;2.17;;;7.00;99.90;;;;;;5362306;26;20236;-73
2024/04/22 07:09:34;;;;;;;1.88;1.77;;;7.00;99.90;;;;;;5434745;26;20640;-74
2024/04/22 07:12:00;;;;;;;2.00;1.90;;;6.90;99.90;;;;;;5429893;26;20301;-73
2024/04/22 07:14:29;;;;;;;2.20;2.10;;;6.90;99.90;;;;;;5425293;26;20259;-72
2024/04/22 07:16:56;;;;;;;2.05;1.95;;;7.00;99.90;;;;;;5418449;26;20260;-73
2024/04/22 07:19:25;;;;;;;2.08;1.90;;;7.10;99.90;;;;;;5423300;26;20348;-72
2024/04/22 07:21:55;;;;;;;1.90;1.80;;;7.10;99.90;;;;;;5421445;26;20748;-73
2024/04/22 07:24:24;;;;;;;3.47;2.10;;;7.20;99.90;;;;;;5423563;26;20256;-72
2024/04/22 07:26:50;;;;;;;2.30;2.20;;;7.20;99.90;;;;;;5419252;26;21085;-72
2024/04/22 07:29:19;;;;;;;2.40;2.20;;;7.20;99.90;;;;;;5426419;26;20339;-73
2024/04/22 07:31:47;;;;;;;2.92;2.03;;;7.30;99.90;;;;;;5362706;26;20268;-73
2024/04/22 07:34:16;;;;;;;1.80;1.70;;;7.30;99.90;;;;;;5425606;26;21074;-73
2024/04/22 07:36:46;;;;;;;2.08;1.98;;;7.40;99.90;;;;;;5398821;26;20287;-73
2024/04/22 07:39:18;;;;;;;2.08;1.90;;;7.40;99.90;;;;;;5396838;26;20271;-73
2024/04/22 07:41:44;;;;;;;2.00;1.90;;;7.50;99.90;;;;;;5422372;26;20256;-74
2024/04/22 07:44:13;;;;;;;2.38;2.17;;;7.40;99.90;;;;;;5386530;26;21008;-75
2024/04/22 07:46:41;;;;;;;2.83;2.58;;;7.40;99.90;;;;;;5402493;26;20264;-75
2024/04/22 07:49:10;;;;;;;2.00;1.90;;;7.50;99.90;;;;;;5390454;26;20248;-74
2024/04/22 07:51:37;;;;;;;1.95;1.85;;;7.60;99.90;;;;;;5396329;26;20330;-73
2024/04/22 07:54:06;;;;;;;3.13;1.60;;;7.70;99.90;;;;;;5392300;26;20828;-72
2024/04/22 07:56:35;;;;;;;2.05;1.95;;;7.90;99.90;;;;;;5405155;26;21135;-72
2024/04/22 07:59:05;;;;;;;2.05;1.95;;;8.00;99.90;;;;;;5422243;26;20843;-72
2024/04/22 08:01:32;;;;;;;2.20;2.00;;;8.10;99.90;;;;;;5428423;26;20263;-71
2024/04/22 08:04:02;;;;;;;1.58;1.58;;;8.10;99.90;;;;;;5422516;26;20355;-72
2024/04/22 08:06:35;;;;;;;1.35;1.35;;;8.10;99.90;;;;;;5403007;26;20245;-72
2024/04/22 08:09:04;;;;;;;1.60;1.50;;;8.00;99.90;;;;;;5360121;26;20267;-73
2024/04/22 08:11:30;;;;;;;2.10;2.00;;;8.10;99.90;;;;;;5387266;26;20804;-71
2024/04/22 08:14:03;;;;;;;1.63;1.52;;;8.20;99.90;;;;;;5377395;26;20248;-71
2024/04/22 08:16:29;;;;;;;2.50;2.28;;;8.20;99.90;;;;;;5380307;26;20311;-71
2024/04/22 08:18:59;;;;;;;2.30;2.13;;;8.20;99.90;;;;;;5382016;26;20737;-72
2024/04/22 08:21:25;;;;;;;1.65;1.55;;;8.30;99.90;;;;;;5382980;26;20328;-73
2024/04/22 08:23:54;;;;;;;1.58;1.58;;;8.40;99.90;;;;;;5388148;26;20303;-72
2024/04/22 08:26:20;;;;;;;3.53;2.25;;;8.40;99.90;;;;;;5385093;26;21022;-74
2024/04/22 08:28:48;;;;;;;2.35;2.15;;;8.40;99.90;;;;;;5377818;26;20333;-77
2024/04/22 08:31:17;;;;;;;2.38;2.15;;;8.50;99.90;;;;;;5383877;26;20450;-75
2024/04/22 08:33:46;;;;;;;1.70;1.60;;;8.70;99.90;;;;;;5387419;26;20999;-76
2024/04/22 08:36:15;;;;;;;1.80;1.70;;;8.70;99.90;;;;;;5385095;26;21180;-77
2024/04/22 08:38:44;;;;;;;1.80;1.70;;;8.60;99.90;;;;;;5381947;26;20390;-77
2024/04/22 08:41:14;;;;;;;1.77;1.67;;;8.50;99.90;;;;;;5387767;26;20536;-79
2024/04/22 08:43:43;;;;;;;2.00;1.90;;;8.50;99.90;;;;;;5385822;26;20298;-76
2024/04/22 08:46:09;;;;;;;1.30;1.30;;;8.40;99.90;;;;;;5388523;26;20284;-76
2024/04/22 08:48:41;;;;;;;1.83;1.73;;;8.30;99.90;;;;;;5392567;26;20662;-76
2024/04/22 08:51:08;;;;;;;1.90;1.80;;;8.30;99.90;;;;;;5381818;26;20291;-76
2024/04/22 08:53:36;;;;;;;1.80;1.70;;;8.30;99.90;;;;;;5393463;26;20245;-75
2024/04/22 08:56:03;;;;;;;1.83;1.73;;;8.10;99.90;;;;;;5390236;26;20260;-76
2024/04/22 08:58:32;;;;;;;1.60;1.60;;;7.90;99.90;;;;;;5386245;26;20307;-76
2024/04/22 09:00:59;;;;;;;2.20;2.10;;;7.90;99.90;;;;;;5384808;26;20316;-75
2024/04/22 09:03:27;;;;;;;1.80;1.70;;;7.90;99.90;;;;;;5391404;26;20862;-76
2024/04/22 09:05:56;;;;;;;1.90;1.80;;;7.90;99.90;;;;;;5376817;26;20300;-76
2024/04/22 09:08:25;;;;;;;2.05;1.95;;;7.90;99.90;;;;;;5377393;26;20792;-75
2024/04/22 09:10:55;;;;;;;1.75;1.75;;;7.80;99.90;;;;;;5378225;26;20265;-73
2024/04/22 09:13:24;;;;;;;1.77;1.67;;;7.90;99.90;;;;;;5373318;26;20267;-73
2024/04/22 09:15:54;;;;;;;1.90;1.80;;;7.90;99.90;;;;;;5384571;26;20276;-73
2024/04/22 09:18:23;;;;;;;1.80;1.70;;;7.90;99.90;;;;;;5385901;26;20256;-73
2024/04/22 09:20:50;;;;;;;2.30;2.10;;;7.90;99.90;;;;;;5359805;26;20314;-72
2024/04/22 09:23:24;;;;;;;1.90;1.80;;;7.90;99.90;;;;;;5390454;26;20749;-73
2024/04/22 09:25:50;;;;;;;2.00;1.90;;;7.80;99.90;;;;;;5378484;26;20310;-74
2024/04/22 09:28:24;;;;;;;2.35;1.90;;;7.70;99.90;;;;;;5380599;26;20252;-76
2024/04/22 09:30:53;;;;;;;2.17;2.08;;;7.70;99.90;;;;;;5377880;26;20937;-76
2024/04/22 09:33:24;;;;;;;2.28;2.05;;;7.70;99.90;;;;;;5384412;26;20395;-74
2024/04/22 09:35:51;;;;;;;2.00;1.85;;;7.60;99.90;;;;;;5375393;26;20708;-75
2024/04/22 09:38:24;;;;;;;2.30;1.70;;;7.60;99.90;;;;;;5383150;26;20259;-75
2024/04/22 09:40:52;;;;;;;1.73;1.60;;;7.60;99.90;;;;;;5373244;26;21256;-75
2024/04/22 09:43:22;;;;;;;1.85;1.63;;;7.60;99.90;;;;;;5383547;26;20244;-74
2024/04/22 09:45:51;;;;;;;2.00;1.90;;;7.60;99.90;;;;;;5360043;26;20367;-73
2024/04/22 09:48:20;;;;;;;1.92;1.83;;;7.60;99.90;;;;;;5387504;26;21075;-73
2024/04/22 09:50:48;;;;;;;1.80;1.70;;;7.60;99.90;;;;;;5382484;26;20687;-74
2024/04/22 09:53:18;;;;;;;1.80;1.70;;;7.60;99.90;;;;;;5378921;26;20309;-74
2024/04/22 09:55:47;;;;;;;2.60;1.60;;;7.50;99.90;;;;;;5346545;26;20298;-73
2024/04/22 09:58:19;;;;;;;1.75;1.67;;;7.50;99.90;;;;;;5377419;26;20904;-71
2024/04/22 10:00:45;;;;;;;1.77;1.60;;;7.50;99.90;;;;;;5381059;26;20261;-72
2024/04/22 10:03:14;;;;;;;1.80;1.70;;;7.50;99.90;;;;;;5379430;26;20770;-72
2024/04/22 10:05:41;;;;;;;1.48;1.48;;;7.50;99.90;;;;;;5380340;26;20257;-72
2024/04/22 10:08:10;;;;;;;1.63;1.63;;;7.50;99.90;;;;;;5400096;26;20282;-72
2024/04/22 10:10:41;;;;;;;1.95;1.85;;;7.60;99.90;;;;;;5422527;26;20814;-71
2024/04/22 10:13:14;;;;;;;1.73;1.70;;;7.60;99.90;;;;;;5421437;26;20281;-72
2024/04/22 10:15:40;;;;;;;3.88;1.80;;;7.60;99.90;;;;;;5396088;26;20251;-71
2024/04/22 10:18:14;;;;;;;2.05;1.95;;;7.50;99.90;;;;;;5419917;26;20357;-73
2024/04/22 10:20:41;;;;;;;2.00;1.90;;;7.50;99.90;;;;;;5416781;26;20822;-72
2024/04/22 10:23:10;;;;;;;1.63;1.63;;;7.40;99.90;;;;;;5428723;26;20378;-72
2024/04/22 10:25:36;;;;;;;1.73;1.63;;;7.40;99.90;;;;;;5408998;26;20257;-72
2024/04/22 10:28:05;;;;;;;2.97;1.90;;;7.40;99.90;;;;;;5394543;26;20294;-74
2024/04/22 10:30:45;;;;;;;2.10;2.00;;;7.40;99.90;;;;;;5424012;26;20677;-72
2024/04/22 10:33:16;;;;;;;1.73;1.33;;;7.40;99.90;;;;;;5421257;26;20251;-73
2024/04/22 10:35:41;;;;;;;1.90;1.80;;;7.40;99.90;;;;;;5420565;26;20259;-72
2024/04/22 10:38:10;;;;;;;1.92;1.83;;;7.50;99.90;;;;;;5417220;26;20649;-73
2024/04/22 10:40:36;;;;;;;1.65;1.65;;;7.70;99.90;;;;;;5393448;26;20767;-74
2024/04/22 10:43:05;;;;;;;2.17;1.80;;;7.80;99.90;;;;;;5419239;26;20955;-72
2024/04/22 10:45:32;;;;;;;1.90;1.80;;;7.90;99.90;;;;;;5419335;26;20255;-71
2024/04/22 10:48:03;;;;;;;1.90;1.80;;;7.90;99.90;;;;;;5393589;26;20255;-71
2024/04/22 10:50:29;;;;;;;1.98;1.90;;;7.90;99.90;;;;;;5391459;26;20291;-71
2024/04/22 10:52:58;;;;;;;1.48;1.48;;;7.80;99.90;;;;;;5424007;26;20247;-70
2024/04/22 10:55:25;;;;;;;1.60;1.60;;;7.70;99.90;;;;;;5365016;26;20372;-71
2024/04/22 10:57:57;;;;;;;1.55;1.55;;;7.70;99.90;;;;;;5416450;26;20247;-72
2024/04/22 11:00:23;;;;;;;1.50;1.50;;;7.60;99.90;;;;;;5415603;26;20255;-72
2024/04/22 11:02:52;;;;;;;1.90;1.80;;;7.60;99.90;;;;;;5392702;26;20302;-71
2024/04/22 11:05:21;;;;;;;1.65;1.50;;;7.60;99.90;;;;;;5427737;26;20776;-73
2024/04/22 11:07:50;;;;;;;2.08;1.98;;;7.60;99.90;;;;;;5420369;26;20621;-72
2024/04/22 11:10:16;;;;;;;2.00;1.90;;;7.60;99.90;;;;;;5426002;26;20256;-73
2024/04/22 11:12:45;;;;;;;2.10;2.00;;;7.60;99.90;;;;;;5424326;26;20243;-73
2024/04/22 11:15:12;;;;;;;2.20;2.08;;;7.60;99.90;;;;;;5398408;26;20251;-72
2024/04/22 11:17:40;;;;;;;1.85;1.75;;;7.50;99.90;;;;;;5399419;26;21106;-72
2024/04/22 11:20:08;;;;;;;2.35;2.20;;;7.40;99.90;;;;;;5424917;26;20600;-73
2024/04/22 11:22:40;;;;;;;1.85;1.75;;;7.30;99.90;;;;;;5398745;26;20342;-74
2024/04/22 11:25:07;;;;;;;2.10;2.00;;;7.20;99.90;;;;;;5422789;26;20247;-75
2024/04/22 11:27:37;;;;;;;2.13;2.03;;;7.00;99.90;;;;;;5426257;26;20286;-72
2024/04/22 11:30:04;;;;;;;2.40;2.30;;;7.00;99.90;;;;;;5429545;26;20254;-73
2024/04/22 11:32:33;;;;;;;2.38;2.20;;;7.00;99.90;;;;;;5422705;26;20371;-73
2024/04/22 11:35:03;;;;;;;2.50;2.40;;;7.10;99.90;;;;;;5401890;26;20281;-73
2024/04/22 11:37:32;;;;;;;1.92;1.83;;;7.10;99.90;;;;;;5419136;26;20290;-72
2024/04/22 11:40:02;;;;;;;2.40;2.30;;;7.20;99.90;;;;;;5401061;26;20302;-73
2024/04/22 11:42:31;;;;;;;1.90;1.80;;;7.20;99.90;;;;;;5396134;26;20239;-72
2024/04/22 11:44:57;;;;;;;2.00;1.90;;;7.30;99.90;;;;;;5399394;26;20255;-73
2024/04/22 11:47:26;;;;;;;1.95;1.85;;;7.30;99.90;;;;;;5420263;26;20772;-73
2024/04/22 11:49:53;;;;;;;2.25;2.15;;;7.30;99.90;;;;;;5396580;26;20298;-72
2024/04/22 11:52:22;;;;;;;2.10;2.00;;;7.30;99.90;;;;;;5391917;26;20255;-73
2024/04/22 11:54:48;;;;;;;2.03;1.92;;;7.20;99.90;;;;;;5394120;26;20334;-73
2024/04/22 11:57:20;;;;;;;2.10;2.00;;;7.20;99.90;;;;;;5418631;26;20933;-73
2024/04/22 11:59:46;;;;;;;1.98;1.88;;;7.20;99.90;;;;;;5420832;26;20246;-74
2024/04/22 12:02:16;;;;;;;2.13;1.90;;;7.20;99.90;;;;;;5431416;26;21286;-72
2024/04/22 12:04:44;;;;;;;1.95;1.85;;;7.20;99.90;;;;;;5422509;26;20851;-73
2024/04/22 12:07:12;;;;;;;2.35;2.25;;;7.10;99.90;;;;;;5390519;26;20243;-73
2024/04/22 12:09:38;;;;;;;1.92;1.83;;;7.10;99.90;;;;;;5427752;26;21166;-73
2024/04/22 12:12:08;;;;;;;1.95;1.85;;;7.10;99.90;;;;;;5428866;26;20298;-72
2024/04/22 12:14:37;;;;;;;1.95;1.90;;;7.10;99.90;;;;;;5394803;26;20295;-73
2024/04/22 12:17:06;;;;;;;2.13;2.03;;;7.10;99.90;;;;;;5418803;26;20290;-73
2024/04/22 12:19:32;;;;;;;1.60;1.50;;;7.20;99.90;;;;;;5426474;26;20263;-73
2024/04/22 12:22:02;;;;;;;1.98;1.88;;;7.20;99.90;;;;;;5391913;26;20323;-74
2024/04/22 12:24:29;;;;;;;2.40;2.30;;;7.20;99.90;;;;;;5386725;26;20279;-75
2024/04/22 12:26:57;;;;;;;2.13;2.03;;;7.20;99.90;;;;;;5427495;26;20252;-72
2024/04/22 12:29:23;;;;;;;1.63;1.63;;;7.20;99.90;;;;;;5426502;26;20298;-72
2024/04/22 12:31:55;;;;;;;1.92;1.83;;;7.30;99.90;;;;;;5425509;26;20251;-72
2024/04/22 12:34:21;;;;;;;1.63;1.63;;;7.40;99.90;;;;;;5389003;26;20743;-74
2024/04/22 12:36:49;;;;;;;1.98;1.88;;;7.40;99.90;;;;;;5427820;26;20235;-73
2024/04/22 12:39:15;;;;;;;2.00;1.90;;;7.50;99.90;;;;;;5427281;26;20263;-71
2024/04/22 12:41:44;;;;;;;1.77;1.67;;;7.50;99.90;;;;;;5422534;26;20305;-72
2024/04/22 12:44:10;;;;;;;2.10;2.00;;;7.40;99.90;;;;;;5423405;26;21221;-71
2024/04/22 12:50:42;;;;;;;1.85;1.75;;;7.30;99.90;;;;;;5404534;26;20949;-71
2024/04/22 12:52:20;;;;;;;2.00;1.90;;;7.20;99.90;;;;;;5412709;26;20305;-74
2024/04/22 12:54:49;;;;;;;2.10;2.00;;;7.20;99.90;;;;;;5387858;26;20263;-71
2024/04/22 12:57:17;;;;;;;2.05;1.83;;;7.20;99.90;;;;;;5398850;26;20339;-71
2024/04/22 12:59:46;;;;;;;1.90;1.80;;;7.20;99.90;;;;;;5424325;26;20247;-72
2024/04/22 13:02:15;;;;;;;2.08;1.98;;;7.20;99.90;;;;;;5423679;26;20251;-71
2024/04/22 13:04:47;;;;;;;1.73;1.73;;;7.20;99.90;;;;;;5421241;26;20287;-71
2024/04/22 13:07:16;;;;;;;2.50;2.30;;;7.10;99.90;;;;;;5387080;26;20924;-71
2024/04/22 13:09:45;;;;;;;2.40;2.20;;;7.10;99.90;;;;;;5384927;26;20645;-71
2024/04/22 13:12:14;;;;;;;3.45;2.90;;;7.00;99.90;;;;;;5390780;26;20265;-71
2024/04/22 13:14:42;;;;;;;1.70;1.60;;;7.00;99.90;;;;;;5386685;26;20252;-71